Time;durP1;ratioP1;P1;durP2;ratioP2;P2;SDS_P1;SDS_P2;PMS_P1;PMS_P2;Temp;Humidity;BMP_temperature;BMP_pressure;BME280_temperature;BME280_humidity;BME280_pressure;Samples;Min_cycle;Max_cycle;Signal;HPM_P1;HPM_P2
2023/02/01 00:04:08;;;;;;;1.80;1.70;;;;;;;;;;10443461;28;20049;-88
2023/02/01 00:09:12;;;;;;;2.45;1.10;;;;;;;;;;10459204;28;20049;-87
2023/02/01 00:14:17;;;;;;;1.70;1.40;;;;;;;;;;10467326;28;20530;-88
2023/02/01 00:19:22;;;;;;;1.80;1.70;;;;;;;;;;10439548;28;20048;-90
2023/02/01 00:24:26;;;;;;;2.50;2.30;;;;;;;;;;10458452;28;20072;-87
2023/02/01 00:29:30;;;;;;;4.00;2.90;;;;;;;;;;10447536;28;20500;-88
2023/02/01 00:34:34;;;;;;;3.80;3.05;;;;;;;;;;10462426;28;20072;-87
2023/02/01 00:39:37;;;;;;;3.92;2.83;;;;;;;;;;10470595;28;20130;-85
2023/02/01 00:44:42;;;;;;;5.45;3.80;;;;;;;;;;10440363;28;20516;-85
2023/02/01 00:49:45;;;;;;;6.40;4.18;;;;;;;;;;10465461;28;20056;-85
2023/02/01 00:54:49;;;;;;;6.53;4.22;;;;;;;;;;10451422;28;20068;-86
2023/02/01 00:59:54;;;;;;;4.60;3.58;;;;;;;;;;10452584;28;20052;-86
2023/02/01 01:04:57;;;;;;;4.88;4.00;;;;;;;;;;10443403;28;20047;-85
2023/02/01 01:10:01;;;;;;;4.95;3.78;;;;;;;;;;10429981;28;20041;-87
2023/02/01 01:15:07;;;;;;;5.32;4.20;;;;;;;;;;10463484;28;20054;-90
2023/02/01 01:20:11;;;;;;;;;;;;;;;;;;10454596;28;20060;-86
2023/02/01 01:25:15;;;;;;;4.97;3.33;;;;;;;;;;10476568;28;19970;-85
2023/02/01 01:30:20;;;;;;;5.20;3.78;;;;;;;;;;10492439;28;20048;-86
2023/02/01 01:35:23;;;;;;;5.28;3.95;;;;;;;;;;10495634;28;20039;-86
2023/02/01 01:40:27;;;;;;;3.38;2.65;;;;;;;;;;10516406;28;20040;-86
2023/02/01 01:45:34;;;;;;;4.65;2.92;;;;;;;;;;10489515;28;20048;-85
2023/02/01 01:50:40;;;;;;;4.90;2.58;;;;;;;;;;10490162;28;20052;-85
2023/02/01 01:55:46;;;;;;;4.00;2.38;;;;;;;;;;10518386;28;20067;-85
2023/02/01 02:00:51;;;;;;;3.75;2.55;;;;;;;;;;10502119;28;20074;-85
2023/02/01 02:05:58;;;;;;;3.22;2.08;;;;;;;;;;10486612;28;20115;-85
2023/02/01 02:11:02;;;;;;;7.45;3.22;;;;;;;;;;10484879;28;20055;-86
2023/02/01 02:16:21;;;;;;;7.10;2.83;;;;;;;;;;10492659;28;20822;-85
2023/02/01 02:21:40;;;;;;;6.25;1.92;;;;;;;;;;10483690;28;20074;-85
2023/02/01 02:26:57;;;;;;;3.88;2.08;;;;;;;;;;10491127;28;20478;-88
2023/02/01 02:32:17;;;;;;;3.72;1.83;;;;;;;;;;10485765;28;20229;-87
2023/02/01 02:37:33;;;;;;;2.47;1.70;;;;;;;;;;10504733;28;20043;-88
2023/02/01 02:48:11;;;;;;;3.55;1.48;;;;;;;;;;10492452;28;20097;-86
2023/02/01 03:04:08;;;;;;;6.53;2.28;;;;;;;;;;10489611;28;20323;-85
2023/02/01 03:09:20;;;;;;;3.85;2.40;;;;;;;;;;10490120;28;20193;-85
2023/02/01 03:14:25;;;;;;;3.20;1.60;;;;;;;;;;10485726;28;20048;-89
2023/02/01 03:19:34;;;;;;;3.28;1.70;;;;;;;;;;10503877;28;20040;-88
2023/02/01 03:24:42;;;;;;;3.65;1.63;;;;;;;;;;10493012;28;20040;-85
2023/02/01 03:29:50;;;;;;;2.40;1.33;;;;;;;;;;10500772;28;20264;-88
2023/02/01 03:34:54;;;;;;;9.48;3.00;;;;;;;;;;10498003;28;20048;-87
2023/02/01 03:40:04;;;;;;;2.67;1.80;;;;;;;;;;10499501;28;20064;-85
2023/02/01 03:45:14;;;;;;;7.30;2.95;;;;;;;;;;10488592;28;20040;-85
2023/02/01 03:50:19;;;;;;;8.43;3.25;;;;;;;;;;10489423;28;20230;-85
2023/02/01 03:55:27;;;;;;;7.57;2.50;;;;;;;;;;10492610;28;20040;-84
2023/02/01 04:00:30;;;;;;;6.53;2.60;;;;;;;;;;10495654;28;20557;-86
2023/02/01 04:05:35;;;;;;;7.57;2.47;;;;;;;;;;10494162;28;20152;-86
2023/02/01 04:10:43;;;;;;;9.40;3.50;;;;;;;;;;10522316;28;20589;-85
2023/02/01 04:15:49;;;;;;;10.88;3.20;;;;;;;;;;10506907;28;20503;-87
2023/02/01 04:20:53;;;;;;;4.72;2.13;;;;;;;;;;10482222;28;20042;-87
2023/02/01 04:26:02;;;;;;;9.07;3.85;;;;;;;;;;10512557;28;20040;-86
2023/02/01 04:31:05;;;;;;;10.93;2.95;;;;;;;;;;10512566;28;20533;-85
2023/02/01 04:36:09;;;;;;;6.65;2.88;;;;;;;;;;10497433;28;20039;-86
2023/02/01 04:41:15;;;;;;;8.82;3.80;;;;;;;;;;10488410;28;20040;-86
2023/02/01 04:46:19;;;;;;;7.18;3.08;;;;;;;;;;10504178;28;20052;-84
2023/02/01 04:51:22;;;;;;;13.07;3.78;;;;;;;;;;10505483;28;20113;-87
2023/02/01 04:56:27;;;;;;;13.85;3.50;;;;;;;;;;10491650;28;20684;-85
2023/02/01 05:01:31;;;;;;;12.40;2.90;;;;;;;;;;10499874;28;20127;-87
2023/02/01 05:06:34;;;;;;;11.85;4.13;;;;;;;;;;10495499;28;20048;-86
2023/02/01 05:17:00;;;;;;;9.73;2.97;;;;;;;;;;10490705;28;20048;-86
2023/02/01 05:29:09;;;;;;;11.27;3.47;;;;;;;;;;10486455;27;20048;-85
2023/02/01 05:34:13;;;;;;;7.35;3.40;;;;;;;;;;10492952;27;20075;-87
2023/02/01 05:39:18;;;;;;;12.13;3.80;;;;;;;;;;10477085;28;20040;-87
2023/02/01 05:44:22;;;;;;;14.13;4.40;;;;;;;;;;10481454;28;20048;-85
2023/02/01 05:49:28;;;;;;;8.00;3.50;;;;;;;;;;10479025;27;20044;-85
2023/02/01 05:54:32;;;;;;;15.63;3.63;;;;;;;;;;10476222;27;20049;-83
2023/02/01 05:59:40;;;;;;;11.05;3.47;;;;;;;;;;10487467;27;20044;-83
2023/02/01 06:04:44;;;;;;;12.15;3.60;;;;;;;;;;10482032;27;20042;-82
2023/02/01 06:09:48;;;;;;;12.32;3.67;;;;;;;;;;10484901;28;20044;-84
2023/02/01 06:14:52;;;;;;;11.90;3.75;;;;;;;;;;10471738;28;20051;-86
2023/02/01 06:19:55;;;;;;;15.40;4.10;;;;;;;;;;10495588;28;20040;-88
2023/02/01 06:25:00;;;;;;;12.85;4.03;;;;;;;;;;10522734;28;20579;-86
2023/02/01 06:41:34;;;;;;;25.27;7.13;;;;;;;;;;10433169;28;20396;-85
2023/02/01 06:46:38;;;;;;;24.63;8.07;;;;;;;;;;10419876;28;20314;-85
2023/02/01 06:51:41;;;;;;;21.00;7.10;;;;;;;;;;10417954;28;20045;-85
2023/02/01 06:56:46;;;;;;;11.30;4.40;;;;;;;;;;10417969;28;20037;-86
2023/02/01 07:01:53;;;;;;;9.88;3.83;;;;;;;;;;10416011;28;20045;-88
2023/02/01 07:06:57;;;;;;;12.55;3.90;;;;;;;;;;10417665;28;20075;-85
2023/02/01 07:12:02;;;;;;;11.60;3.33;;;;;;;;;;10413548;28;20214;-85
2023/02/01 07:17:06;;;;;;;16.42;4.40;;;;;;;;;;10409986;28;20056;-85
2023/02/01 07:22:09;;;;;;;9.40;2.90;;;;;;;;;;10412535;28;20232;-85
2023/02/01 07:27:17;;;;;;;10.15;2.95;;;;;;;;;;10407218;28;20048;-86
2023/02/01 07:32:21;;;;;;;9.02;2.63;;;;;;;;;;10418806;28;20045;-84
2023/02/01 07:37:25;;;;;;;13.00;3.63;;;;;;;;;;10413734;28;20049;-85
2023/02/01 07:42:30;;;;;;;13.25;3.45;;;;;;;;;;10380654;28;20132;-84
2023/02/01 07:47:34;;;;;;;8.55;2.72;;;;;;;;;;10380418;28;20044;-84
2023/02/01 07:52:37;;;;;;;11.68;3.03;;;;;;;;;;10377854;28;20056;-85
2023/02/01 07:57:45;;;;;;;12.52;3.13;;;;;;;;;;10340139;28;20129;-85
2023/02/01 08:02:48;;;;;;;13.38;2.70;;;;;;;;;;10380139;28;20057;-86
2023/02/01 08:07:52;;;;;;;8.88;2.85;;;;;;;;;;10382840;28;20233;-85
2023/02/01 08:13:01;;;;;;;10.57;3.47;;;;;;;;;;10381902;28;20045;-85
2023/02/01 08:18:04;;;;;;;8.98;3.30;;;;;;;;;;10340243;28;20450;-85
2023/02/01 08:23:09;;;;;;;10.40;3.03;;;;;;;;;;10336945;28;20099;-86
2023/02/01 08:28:15;;;;;;;16.40;4.00;;;;;;;;;;10401787;28;20037;-88
2023/02/01 08:33:19;;;;;;;13.98;3.70;;;;;;;;;;10401421;28;20100;-88
2023/02/01 08:38:23;;;;;;;7.13;2.03;;;;;;;;;;10402336;28;20085;-88
2023/02/01 08:43:30;;;;;;;11.60;3.17;;;;;;;;;;10394152;28;20132;-88
2023/02/01 08:48:39;;;;;;;7.85;2.05;;;;;;;;;;10392712;28;20606;-88
2023/02/01 08:53:46;;;;;;;8.10;2.17;;;;;;;;;;10393016;28;20052;-88
2023/02/01 08:58:51;;;;;;;9.65;2.95;;;;;;;;;;10383824;28;20083;-86
2023/02/01 09:03:55;;;;;;;13.80;3.42;;;;;;;;;;10388641;28;20042;-86
2023/02/01 09:08:58;;;;;;;9.07;2.67;;;;;;;;;;10382552;28;20041;-88
2023/02/01 09:14:03;;;;;;;7.95;2.70;;;;;;;;;;10380480;28;20037;-85
2023/02/01 09:19:07;;;;;;;12.40;3.15;;;;;;;;;;10397074;28;20069;-92
2023/02/01 09:24:28;;;;;;;12.77;3.28;;;;;;;;;;10380612;28;20046;-88
2023/02/01 09:29:33;;;;;;;14.15;3.97;;;;;;;;;;10396622;28;20064;-87
2023/02/01 09:34:37;;;;;;;11.98;2.65;;;;;;;;;;10392171;28;20060;-90
2023/02/01 09:39:43;;;;;;;10.00;2.92;;;;;;;;;;10389875;28;20076;-87
2023/02/01 09:45:31;;;;;;;14.85;3.35;;;;;;;;;;10389136;28;20044;-91
2023/02/01 09:50:46;;;;;;;6.65;2.40;;;;;;;;;;10380995;28;20063;-91
2023/02/01 09:55:54;;;;;;;15.30;3.22;;;;;;;;;;10394933;28;20064;-91
2023/02/01 10:01:09;;;;;;;10.40;2.50;;;;;;;;;;10392162;28;20529;-91
2023/02/01 10:06:33;;;;;;;10.95;2.83;;;;;;;;;;10375601;28;20549;-90
2023/02/01 10:11:51;;;;;;;10.45;2.92;;;;;;;;;;10403431;28;20045;-91
2023/02/01 10:17:08;;;;;;;14.10;3.07;;;;;;;;;;10398986;28;20541;-93
2023/02/01 10:22:23;;;;;;;12.68;2.90;;;;;;;;;;10397706;28;20507;-92
2023/02/01 10:27:54;;;;;;;8.18;2.65;;;;;;;;;;10400799;28;20060;-91
2023/02/01 10:33:13;;;;;;;9.15;2.70;;;;;;;;;;10404117;28;20063;-91
2023/02/01 10:38:35;;;;;;;15.13;3.58;;;;;;;;;;10389857;28;20056;-91
2023/02/01 10:43:45;;;;;;;15.45;3.83;;;;;;;;;;10405011;28;20065;-91
2023/02/01 10:48:55;;;;;;;12.43;2.97;;;;;;;;;;10406019;28;20042;-91
2023/02/01 10:54:12;;;;;;;12.32;2.90;;;;;;;;;;10404911;28;20045;-91
2023/02/01 10:59:27;;;;;;;13.88;2.67;;;;;;;;;;10406153;28;20041;-92
2023/02/01 11:04:44;;;;;;;12.40;3.38;;;;;;;;;;10396497;28;20045;-91
2023/02/01 11:09:54;;;;;;;15.85;3.30;;;;;;;;;;10415446;28;20559;-91
2023/02/01 11:15:11;;;;;;;10.57;2.92;;;;;;;;;;10403058;28;20054;-92
2023/02/01 11:20:20;;;;;;;11.07;3.15;;;;;;;;;;10416923;28;20075;-91
2023/02/01 11:25:33;;;;;;;10.43;2.63;;;;;;;;;;10414149;28;20045;-92
2023/02/01 11:30:51;;;;;;;8.23;2.67;;;;;;;;;;10413912;28;20072;-92
2023/02/01 11:35:57;;;;;;;11.30;2.67;;;;;;;;;;10389370;28;20418;-87
2023/02/01 11:41:14;;;;;;;12.13;3.05;;;;;;;;;;10408961;28;20040;-89
2023/02/01 11:46:26;;;;;;;12.30;3.00;;;;;;;;;;10397597;28;20513;-86
2023/02/01 11:51:43;;;;;;;11.75;3.00;;;;;;;;;;10384520;28;20533;-86
2023/02/01 11:56:54;;;;;;;14.68;3.63;;;;;;;;;;10308524;28;20573;-86
2023/02/01 12:02:12;;;;;;;7.57;2.42;;;;;;;;;;10339985;28;20121;-89
2023/02/01 12:07:21;;;;;;;10.27;2.83;;;;;;;;;;10336714;28;20422;-86
2023/02/01 12:12:32;;;;;;;12.02;3.25;;;;;;;;;;10341959;28;20046;-86
2023/02/01 12:18:09;;;;;;;10.82;3.03;;;;;;;;;;10341036;28;20045;-87
2023/02/01 12:23:26;;;;;;;9.48;3.03;;;;;;;;;;10336805;28;20145;-87
2023/02/01 12:28:43;;;;;;;13.13;3.80;;;;;;;;;;10331011;28;20510;-88
2023/02/01 12:34:05;;;;;;;12.07;3.33;;;;;;;;;;10338381;28;20503;-87
2023/02/01 12:39:22;;;;;;;10.63;2.63;;;;;;;;;;10344450;28;20415;-89
2023/02/01 12:44:32;;;;;;;14.98;3.17;;;;;;;;;;10352794;28;20507;-91
2023/02/01 12:49:46;;;;;;;14.52;3.40;;;;;;;;;;10344139;28;20410;-86
2023/02/01 12:54:58;;;;;;;12.43;2.80;;;;;;;;;;10344986;28;20049;-86
2023/02/01 13:00:10;;;;;;;9.15;2.97;;;;;;;;;;10338767;28;20498;-87
2023/02/01 13:05:18;;;;;;;10.88;2.85;;;;;;;;;;10338329;28;20037;-88
2023/02/01 13:10:33;;;;;;;12.25;3.08;;;;;;;;;;10338775;28;20503;-88
2023/02/01 13:15:41;;;;;;;13.50;2.92;;;;;;;;;;10339368;28;20626;-88
2023/02/01 13:20:53;;;;;;;9.55;2.90;;;;;;;;;;10353090;28;20359;-89
2023/02/01 13:25:59;;;;;;;14.25;2.95;;;;;;;;;;10340207;28;20355;-87
2023/02/01 13:31:28;;;;;;;11.05;3.13;;;;;;;;;;10338326;28;20045;-88
2023/02/01 13:36:49;;;;;;;12.27;2.70;;;;;;;;;;10329749;28;20061;-88
2023/02/01 13:41:58;;;;;;;9.95;2.45;;;;;;;;;;10340666;28;20088;-87
2023/02/01 13:47:04;;;;;;;11.90;2.45;;;;;;;;;;10335603;28;20124;-88
2023/02/01 13:52:22;;;;;;;;;;;;;;;;;;10344088;28;20043;-84
2023/02/01 13:57:38;;;;;;;9.13;2.47;;;;;;;;;;10352422;28;20030;-84
2023/02/01 14:02:50;;;;;;;8.98;2.25;;;;;;;;;;10337845;28;20415;-86
2023/02/01 14:08:15;;;;;;;4.75;2.03;;;;;;;;;;10340186;28;20454;-87
2023/02/01 14:13:28;;;;;;;10.95;2.60;;;;;;;;;;10358877;28;20053;-87
2023/02/01 14:19:12;;;;;;;7.63;1.92;;;;;;;;;;10328282;28;20145;-88
2023/02/01 14:24:25;;;;;;;9.80;2.75;;;;;;;;;;10291830;28;20113;-88
2023/02/01 14:29:38;;;;;;;9.20;2.60;;;;;;;;;;10291949;28;20047;-88
2023/02/01 14:34:52;;;;;;;9.43;2.33;;;;;;;;;;10291430;28;20078;-88
2023/02/01 14:40:02;;;;;;;7.70;2.42;;;;;;;;;;10290478;28;20122;-90
2023/02/01 14:46:01;;;;;;;7.53;2.17;;;;;;;;;;10290341;28;20428;-87
2023/02/01 14:51:17;;;;;;;6.55;1.83;;;;;;;;;;10293645;28;20035;-88
2023/02/01 14:56:30;;;;;;;7.63;2.00;;;;;;;;;;10299695;28;20042;-88
2023/02/01 15:01:39;;;;;;;10.93;2.22;;;;;;;;;;10294556;28;20572;-90
2023/02/01 15:06:48;;;;;;;8.20;2.00;;;;;;;;;;10295576;28;20130;-88
2023/02/01 15:12:02;;;;;;;6.90;2.40;;;;;;;;;;10329686;28;20069;-87
2023/02/01 15:17:23;;;;;;;5.28;2.00;;;;;;;;;;10294564;28;20695;-86
2023/02/01 15:22:32;;;;;;;7.22;1.60;;;;;;;;;;10307881;28;20120;-93
2023/02/01 15:27:37;;;;;;;6.93;2.17;;;;;;;;;;10314218;28;20050;-86
2023/02/01 15:32:45;;;;;;;6.93;2.40;;;;;;;;;;10292519;28;20038;-88
2023/02/01 15:37:56;;;;;;;10.85;2.00;;;;;;;;;;10301236;28;20730;-87
2023/02/01 15:43:14;;;;;;;8.52;2.33;;;;;;;;;;10287376;28;20038;-89
2023/02/01 15:48:41;;;;;;;9.07;2.58;;;;;;;;;;10295799;28;20140;-88
2023/02/01 15:53:52;;;;;;;7.40;2.58;;;;;;;;;;10301232;28;20316;-87
2023/02/01 15:59:17;;;;;;;5.72;2.22;;;;;;;;;;10304080;28;20133;-87
2023/02/01 16:04:32;;;;;;;8.48;2.10;;;;;;;;;;10318912;28;20052;-87
2023/02/01 16:09:43;;;;;;;9.25;2.00;;;;;;;;;;10330577;28;20065;-87
2023/02/01 16:14:47;;;;;;;5.03;1.85;;;;;;;;;;10329875;28;20084;-87
2023/02/01 16:19:52;;;;;;;6.38;1.90;;;;;;;;;;10338874;28;20050;-91
2023/02/01 16:24:55;;;;;;;9.73;2.63;;;;;;;;;;10341623;28;20088;-91
2023/02/01 16:29:59;;;;;;;6.43;2.30;;;;;;;;;;10335276;28;20282;-87
2023/02/01 16:35:05;;;;;;;5.70;2.10;;;;;;;;;;10323038;28;20062;-88
2023/02/01 16:40:13;;;;;;;9.73;2.57;;;;;;;;;;10329795;28;20045;-87
2023/02/01 16:45:17;;;;;;;6.97;1.85;;;;;;;;;;10333013;28;20104;-87
2023/02/01 16:50:24;;;;;;;5.82;1.95;;;;;;;;;;10339359;28;20060;-86
2023/02/01 16:55:29;;;;;;;11.80;2.47;;;;;;;;;;10342368;28;20084;-86
2023/02/01 17:00:36;;;;;;;7.65;2.65;;;;;;;;;;10340990;28;20053;-86
2023/02/01 17:05:41;;;;;;;7.20;1.85;;;;;;;;;;10344428;28;20049;-86
2023/02/01 17:10:46;;;;;;;5.57;1.85;;;;;;;;;;10340742;28;20439;-86
2023/02/01 17:15:53;;;;;;;5.68;2.00;;;;;;;;;;10307855;28;20175;-89
2023/02/01 17:20:58;;;;;;;5.70;1.90;;;;;;;;;;10292505;28;20058;-89
2023/02/01 17:26:03;;;;;;;9.63;2.05;;;;;;;;;;10337253;28;20046;-89
2023/02/01 17:31:10;;;;;;;10.35;2.25;;;;;;;;;;10358478;28;20188;-88
2023/02/01 17:36:18;;;;;;;9.35;2.08;;;;;;;;;;10336712;28;20042;-89
2023/02/01 17:41:21;;;;;;;7.63;2.45;;;;;;;;;;10340146;28;20492;-88
2023/02/01 17:46:25;;;;;;;9.02;2.03;;;;;;;;;;10334389;28;20046;-88
2023/02/01 17:51:31;;;;;;;8.52;1.95;;;;;;;;;;10337068;28;20387;-89
2023/02/01 17:56:35;;;;;;;8.55;2.67;;;;;;;;;;10331655;28;20894;-87
2023/02/01 18:01:39;;;;;;;9.07;2.25;;;;;;;;;;10316681;28;20045;-86
2023/02/01 18:06:44;;;;;;;9.25;2.47;;;;;;;;;;10363762;28;20443;-86
2023/02/01 18:11:49;;;;;;;8.88;1.90;;;;;;;;;;10335870;28;20038;-88
2023/02/01 18:16:52;;;;;;;8.18;2.78;;;;;;;;;;10338888;28;20104;-87
2023/02/01 18:21:58;;;;;;;5.82;2.05;;;;;;;;;;10339044;28;20046;-89
2023/02/01 18:27:03;;;;;;;3.90;1.45;;;;;;;;;;10340411;28;20681;-89
2023/02/01 18:32:06;;;;;;;9.38;2.50;;;;;;;;;;10354673;28;20125;-89
2023/02/01 18:37:11;;;;;;;7.07;2.22;;;;;;;;;;10340783;28;20045;-88
2023/02/01 18:42:15;;;;;;;10.00;3.13;;;;;;;;;;10306241;28;20038;-87
2023/02/01 18:47:18;;;;;;;12.65;2.88;;;;;;;;;;10336053;28;20101;-91
2023/02/01 18:52:23;;;;;;;4.55;1.67;;;;;;;;;;10341975;28;20038;-88
2023/02/01 18:57:28;;;;;;;12.48;3.08;;;;;;;;;;10338686;28;20053;-90
2023/02/01 19:02:31;;;;;;;7.28;2.53;;;;;;;;;;10346273;28;20100;-87
2023/02/01 19:07:37;;;;;;;9.18;2.33;;;;;;;;;;10291080;28;20826;-87
2023/02/01 19:12:40;;;;;;;9.45;2.42;;;;;;;;;;10255317;23;20071;-84
2023/02/01 19:17:45;;;;;;;6.63;2.05;;;;;;;;;;10217088;28;20135;-84
2023/02/01 19:22:51;;;;;;;10.90;3.05;;;;;;;;;;10210440;29;20036;-84
2023/02/01 19:27:54;;;;;;;8.50;3.30;;;;;;;;;;10215554;29;20063;-86
2023/02/01 19:32:58;;;;;;;15.48;4.95;;;;;;;;;;10215867;29;20044;-86
2023/02/01 19:38:03;;;;;;;7.85;2.33;;;;;;;;;;10159786;29;20044;-85
2023/02/01 19:43:06;;;;;;;16.33;3.08;;;;;;;;;;10230519;28;20046;-85
2023/02/01 19:48:11;;;;;;;8.77;2.60;;;;;;;;;;10224582;28;20416;-88
2023/02/01 19:53:18;;;;;;;9.77;2.58;;;;;;;;;;10239097;28;20543;-85
2023/02/01 19:58:21;;;;;;;;;;;;;;;;;;10222974;28;20040;-84
2023/02/01 20:03:25;;;;;;;10.55;2.80;;;;;;;;;;10211835;28;20045;-84
2023/02/01 20:08:30;;;;;;;6.70;2.58;;;;;;;;;;10196426;28;20044;-83
2023/02/01 20:13:34;;;;;;;12.45;2.58;;;;;;;;;;10225767;28;20240;-84
2023/02/01 20:18:38;;;;;;;5.35;2.00;;;;;;;;;;10201801;28;20131;-84
2023/02/01 20:23:44;;;;;;;13.23;4.50;;;;;;;;;;10203898;28;20077;-84
2023/02/01 20:28:49;;;;;;;8.90;2.20;;;;;;;;;;10218043;28;20065;-84
2023/02/01 20:33:53;;;;;;;10.98;2.55;;;;;;;;;;10202710;29;20047;-82
2023/02/01 20:38:58;;;;;;;5.30;2.20;;;;;;;;;;10202544;28;20039;-82
2023/02/01 20:44:02;;;;;;;8.27;2.15;;;;;;;;;;10231195;28;20055;-83
2023/02/01 20:49:06;;;;;;;9.77;2.22;;;;;;;;;;10201051;28;20128;-81
2023/02/01 20:54:10;;;;;;;10.93;2.60;;;;;;;;;;10220458;28;20107;-82
2023/02/01 20:59:14;;;;;;;8.88;2.65;;;;;;;;;;10203887;29;20075;-83
2023/02/01 21:04:21;;;;;;;8.60;2.63;;;;;;;;;;10228700;28;20059;-81
2023/02/01 21:09:26;;;;;;;9.77;2.40;;;;;;;;;;10196492;28;20059;-82
2023/02/01 21:14:30;;;;;;;7.33;1.97;;;;;;;;;;10207183;28;20060;-83
2023/02/01 21:19:41;;;;;;;5.35;1.60;;;;;;;;;;10216265;28;20243;-82
2023/02/01 21:24:46;;;;;;;8.07;2.28;;;;;;;;;;10181006;29;20047;-83
2023/02/01 21:29:50;;;;;;;4.20;1.85;;;;;;;;;;10243567;28;20047;-82
2023/02/01 21:34:53;;;;;;;10.93;2.53;;;;;;;;;;10208995;28;20059;-82
2023/02/01 21:39:58;;;;;;;9.07;2.47;;;;;;;;;;10207272;28;20047;-83
2023/02/01 21:45:01;;;;;;;8.43;3.33;;;;;;;;;;10173780;29;20478;-81
2023/02/01 21:50:06;;;;;;;6.90;2.80;;;;;;;;;;10193931;28;20071;-81
2023/02/01 21:55:12;;;;;;;4.50;2.30;;;;;;;;;;10204131;28;20127;-81
2023/02/01 22:00:17;;;;;;;10.85;3.47;;;;;;;;;;10191937;28;20122;-84
2023/02/01 22:05:20;;;;;;;9.38;2.58;;;;;;;;;;10193444;28;20050;-86
2023/02/01 22:10:25;;;;;;;10.25;4.60;;;;;;;;;;10211972;28;20106;-85
2023/02/01 22:15:29;;;;;;;5.78;2.28;;;;;;;;;;10199078;29;20051;-88
2023/02/01 22:20:33;;;;;;;5.60;2.45;;;;;;;;;;10212616;28;20138;-84
2023/02/01 22:25:37;;;;;;;6.40;2.25;;;;;;;;;;10234950;28;20054;-85
2023/02/01 22:30:41;;;;;;;8.25;2.53;;;;;;;;;;10217505;28;20035;-85
2023/02/01 22:35:48;;;;;;;7.85;1.90;;;;;;;;;;10216751;28;20040;-85
2023/02/01 22:40:56;;;;;;;6.30;2.50;;;;;;;;;;10193570;28;20207;-85
2023/02/01 22:46:00;;;;;;;6.88;2.15;;;;;;;;;;10192084;29;20383;-84
2023/02/01 22:51:05;;;;;;;7.88;3.17;;;;;;;;;;10189298;29;20100;-84
2023/02/01 22:56:11;;;;;;;12.32;4.10;;;;;;;;;;10197964;29;20050;-83
2023/02/01 23:01:16;;;;;;;10.68;3.35;;;;;;;;;;10200166;29;20056;-84
2023/02/01 23:06:19;;;;;;;12.13;3.50;;;;;;;;;;10206043;28;20047;-84
2023/02/01 23:11:24;;;;;;;9.30;2.78;;;;;;;;;;10201467;28;20059;-85
2023/02/01 23:16:28;;;;;;;9.67;2.50;;;;;;;;;;10211343;28;20051;-83
2023/02/01 23:21:32;;;;;;;5.22;2.17;;;;;;;;;;10189651;29;20058;-82
2023/02/01 23:26:37;;;;;;;5.45;1.52;;;;;;;;;;10191790;28;20050;-82
2023/02/01 23:31:41;;;;;;;4.60;2.10;;;;;;;;;;10209138;28;20520;-84
2023/02/01 23:36:44;;;;;;;4.93;2.08;;;;;;;;;;10197967;28;20465;-85
2023/02/01 23:41:49;;;;;;;6.95;2.45;;;;;;;;;;10210826;29;20130;-82
2023/02/01 23:46:52;;;;;;;9.18;2.88;;;;;;;;;;10210744;29;20047;-84
2023/02/01 23:51:56;;;;;;;7.82;2.38;;;;;;;;;;10212384;28;20040;-82
2023/02/01 23:57:01;;;;;;;6.80;2.38;;;;;;;;;;10210575;29;20043;-84
